Main page
METAR-TAF:

METAR-TAF

Airports :

Sardar Vallabhbhai Patel International Airport

Ahmedabad, India

latitude: 23-04N, longitude: 072-38E, elevation: 55 m

Current weather observation

The report was made 1 hour and 20 minutes ago, at 16:30 UTC
Wind 2 kt from the North/Northeast
Temperature 26°C
Humidity 45%
Pressure 1014 hPa
Visibility: 4000 m
smoke

METAR: VAAH 151630Z 02002KT 4000 FU NSC 26/13 Q1014 NOSIG

Time: 23:20 (17:50 UTC)

Forecast

The report was made 50 minutes ago, at 17:00 UTC
Forecast valid from 15 at 18 UTC to 16 at 24 UTC
Wind 6 kt from the North
Visibility: 4000 m
Becoming
from 16 at 01 UTC to 16 at 03 UTC
Wind 6 kt from the Northeast
Visibility: 2000 m
haze
Becoming
from 16 at 05 UTC to 16 at 07 UTC
Wind 5 kt from the East
Visibility: 6000 m
Becoming
from 16 at 12 UTC to 16 at 14 UTC
Wind 4 kt from the North/Northeast
Visibility: 4000 m

TAF: VAAH 151700Z 1518/1624 01006KT 4000 FUHZ NSC BECMG 1601/1603 05006KT 2000 HZ NSC BECMG 1605/1607 08005KT 6000 NSC BECMG 1612/1614 02004KT 4000 FUHZ NSC

Weather observations and forecasts of more than 4000 airports (METAR and TAF reports).

The available stations are represented by yellow and red dots on the map.

Hover mouse over dot to see the name of the station.

Then click to see weather observations and forecasts.

To change the map : click on the green buttons with a black cross to zoom in, on the green button with a dash to zoom out, or on the green arrows for adjacent maps.


METAR-TAF: